Rechercher aéroport 
image banner adimage banner adimage banner ad
image banner ad

KCBF - Council Bluffs Muni

Situé à Council Bluffs, United States

ICAO - CBF, IATA - CBF

Données fournies par Airmate  

Information générale

Coordonnées: N41°15'36" W95°45'31"
Élévation : 1245 feet MSL.
Variation magnétique : 05° East
Voir autres Aéroports à Iowa

Données opérationnelles

Special qualification required
Heure actuelle UTC:
Heure actuelle locale:
Météo
METAR: KCBF 291555Z AUTO 31005KT 9SM CLR 33/24 A3000 RMK AO2
Voir NOTAMs / SUP AIP / TFR affectant cet aéroport [VIEW]
Fréquences de communication: [VIEW]

Pistes:

Identifiant RWYQFULongueur (ft)Largeur (ft)SurfaceLDA (ft)
14141°365060CONC
32321°365060CONC
18181°5500100CONC
365500100CONC

Coordonnées de l'aéroport

Adresse: Council Bluffs United States

Autres services d'aviation

Écoles de pilotage

Advanced Air, Inc.

Advanced Air, Inc.

Vue satellite de KCBF